AAL883 TNCM-KBOS
Flight info
| Callsign | AAL883 |
|---|---|
| Flight time | N/A |
| Altitude | 36000 |
| Route | THANK L456 HANCY/M084F360 L456 MEGGG DCT BALTN DCT DASER DCT KAYYT/N0487F360 Y578 JENYY DCT FERNZ OOSHN5 |
| Aircraft | B77W/H-SDE1E2E3FGHIJ2J3J4J5M1RWXY/LB1D1 |
Departure
| Time | 2026-05-04 21:38 |
|---|---|
| Airport | Princess Juliana International Airport (TNCM) |
Arrival
| Time | N/A |
|---|---|
| Airport | Boston Logan International Airport (KBOS) |
| Time | Latitude | Longitude | Altitude | Speed | Heading |
|---|---|---|---|---|---|
| 2026-05-04 21:15 | 18.04327 | -63.11292 | 26 ft | 0 kts | 352° |
| 2026-05-04 21:20 | 18.04326 | -63.11292 | 26 ft | 0 kts | 352° |
| 2026-05-04 21:32 | 18.04320 | -63.11291 | 27 ft | 5 kts | 352° |
| 2026-05-04 21:32 | 18.04285 | -63.11285 | 26 ft | 0 kts | 352° |
| 2026-05-04 21:32 | 18.04270 | -63.11283 | 30 ft | 5 kts | 352° |
| 2026-05-04 21:33 | 18.04264 | -63.11282 | 27 ft | 0 kts | 352° |
| 2026-05-04 21:33 | 18.04285 | -63.11302 | 26 ft | 0 kts | 281° |
| 2026-05-04 21:34 | 18.04253 | -63.11348 | 31 ft | 12 kts | 191° |
| 2026-05-04 21:34 | 18.04215 | -63.11334 | 26 ft | 0 kts | 153° |
| 2026-05-04 21:34 | 18.04176 | -63.11313 | 27 ft | 19 kts | 153° |
| 2026-05-04 21:34 | 18.04142 | -63.11298 | 28 ft | 0 kts | 159° |
| 2026-05-04 21:35 | 18.04132 | -63.11294 | 27 ft | 8 kts | 159° |
| 2026-05-04 21:35 | 18.04065 | -63.11289 | 28 ft | 7 kts | 211° |
| 2026-05-04 21:35 | 18.04030 | -63.11356 | 28 ft | 13 kts | 255° |
| 2026-05-04 21:35 | 18.04019 | -63.11419 | 25 ft | 0 kts | 261° |
| 2026-05-04 21:36 | 18.04014 | -63.11453 | 30 ft | 18 kts | 261° |
| 2026-05-04 21:36 | 18.03985 | -63.11651 | 26 ft | 27 kts | 261° |
| 2026-05-04 21:36 | 18.03965 | -63.11818 | 27 ft | 13 kts | 269° |
| 2026-05-04 21:36 | 18.03981 | -63.11895 | 26 ft | 9 kts | 289° |
| 2026-05-04 21:37 | 18.03959 | -63.11940 | 27 ft | 9 kts | 177° |
| 2026-05-04 21:37 | 18.03948 | -63.11892 | 27 ft | 0 kts | 82° |
| 2026-05-04 21:37 | 18.03948 | -63.11891 | 27 ft | 0 kts | 82° |
| 2026-05-04 21:37 | 18.03959 | -63.11804 | 27 ft | 31 kts | 82° |
| 2026-05-04 21:38 | 18.04049 | -63.11208 | 29 ft | 140 kts | 81° |
| 2026-05-04 21:38 | 18.04234 | -63.09877 | 454 ft | 207 kts | 82° |
| 2026-05-04 21:38 | 18.04285 | -63.08379 | 2073 ft | 206 kts | 99° |
| 2026-05-04 21:38 | 18.03766 | -63.06966 | 3801 ft | 210 kts | 123° |
| 2026-05-04 21:39 | 18.02753 | -63.05794 | 5395 ft | 226 kts | 140° |
| 2026-05-04 21:39 | 18.01398 | -63.04784 | 6700 ft | 252 kts | 144° |
| 2026-05-04 21:39 | 17.99864 | -63.03966 | 8416 ft | 243 kts | 162° |
| 2026-05-04 21:39 | 17.98251 | -63.03554 | 10136 ft | 235 kts | 165° |
| 2026-05-04 21:40 | 17.96702 | -63.03175 | 11756 ft | 223 kts | 165° |
| 2026-05-04 21:40 | 17.95163 | -63.02784 | 12856 ft | 232 kts | 166° |
| 2026-05-04 21:40 | 17.93557 | -63.02359 | 13739 ft | 245 kts | 165° |
| 2026-05-04 21:40 | 17.91830 | -63.01904 | 14376 ft | 269 kts | 165° |
| 2026-05-04 21:41 | 17.89889 | -63.01586 | 14535 ft | 296 kts | 184° |
| 2026-05-04 21:41 | 17.87858 | -63.02135 | 14740 ft | 319 kts | 208° |
| 2026-05-04 21:41 | 17.86052 | -63.03618 | 14960 ft | 343 kts | 231° |
| 2026-05-04 21:41 | 17.84758 | -63.05805 | 15166 ft | 366 kts | 247° |
| 2026-05-04 21:42 | 17.83849 | -63.08396 | 15364 ft | 389 kts | 253° |
| 2026-05-04 21:42 | 17.83113 | -63.11182 | 15853 ft | 401 kts | 259° |
| 2026-05-04 21:42 | 17.82813 | -63.14116 | 16484 ft | 408 kts | 270° |
| 2026-05-04 21:42 | 17.83146 | -63.17069 | 17273 ft | 410 kts | 287° |
| 2026-05-04 21:43 | 17.84348 | -63.19779 | 18146 ft | 410 kts | 304° |
| 2026-05-04 21:43 | 17.86285 | -63.21989 | 18865 ft | 416 kts | 319° |
| 2026-05-04 21:43 | 17.88606 | -63.23855 | 19382 ft | 425 kts | 324° |
| 2026-05-04 21:43 | 17.91071 | -63.25625 | 19941 ft | 432 kts | 326° |
| 2026-05-04 21:44 | 17.93591 | -63.27379 | 20543 ft | 437 kts | 326° |
| 2026-05-04 21:44 | 17.96151 | -63.29155 | 21110 ft | 443 kts | 326° |
| 2026-05-04 21:44 | 17.98735 | -63.30947 | 21648 ft | 449 kts | 326° |
| 2026-05-04 21:44 | 18.01320 | -63.32742 | 22173 ft | 453 kts | 326° |
| 2026-05-04 21:45 | 18.03968 | -63.34576 | 22726 ft | 457 kts | 326° |
| 2026-05-04 21:45 | 18.06644 | -63.36421 | 23213 ft | 463 kts | 326° |
| 2026-05-04 21:45 | 18.09358 | -63.38284 | 23609 ft | 470 kts | 326° |
| 2026-05-04 21:45 | 18.12114 | -63.40176 | 24005 ft | 476 kts | 327° |
| 2026-05-04 21:46 | 18.14902 | -63.42100 | 24447 ft | 481 kts | 327° |
| 2026-05-04 21:46 | 18.17688 | -63.44045 | 25032 ft | 480 kts | 327° |
| 2026-05-04 21:46 | 18.20468 | -63.45994 | 25595 ft | 481 kts | 327° |
| 2026-05-04 21:46 | 18.23254 | -63.47956 | 26106 ft | 483 kts | 326° |
| 2026-05-04 21:47 | 18.26051 | -63.49927 | 26581 ft | 485 kts | 326° |
| 2026-05-04 21:47 | 18.28868 | -63.51916 | 27054 ft | 487 kts | 326° |
| 2026-05-04 21:47 | 18.31649 | -63.53882 | 27507 ft | 489 kts | 326° |
| 2026-05-04 21:47 | 18.34483 | -63.55885 | 27969 ft | 490 kts | 326° |
| 2026-05-04 21:48 | 18.37318 | -63.57889 | 28399 ft | 492 kts | 326° |
| 2026-05-04 21:48 | 18.40165 | -63.59900 | 28822 ft | 493 kts | 326° |
| 2026-05-04 21:48 | 18.43018 | -63.61916 | 29232 ft | 494 kts | 326° |
| 2026-05-04 21:48 | 18.45884 | -63.63940 | 29557 ft | 496 kts | 326° |
| 2026-05-04 21:49 | 18.48756 | -63.65967 | 29927 ft | 497 kts | 326° |
| 2026-05-04 21:49 | 18.51625 | -63.67993 | 30401 ft | 495 kts | 326° |
| 2026-05-04 21:49 | 18.54484 | -63.70009 | 30923 ft | 493 kts | 326° |
| 2026-05-04 21:49 | 18.57328 | -63.72012 | 31443 ft | 490 kts | 326° |
| 2026-05-04 21:50 | 18.60156 | -63.74002 | 31914 ft | 488 kts | 326° |
| 2026-05-04 21:50 | 18.62982 | -63.75987 | 32339 ft | 487 kts | 326° |
| 2026-05-04 21:50 | 18.65829 | -63.77914 | 32760 ft | 486 kts | 329° |
| 2026-05-04 21:50 | 18.68765 | -63.79576 | 33174 ft | 484 kts | 333° |
| 2026-05-04 21:51 | 18.71796 | -63.81111 | 33594 ft | 483 kts | 335° |
| 2026-05-04 21:51 | 18.73852 | -63.82111 | 33893 ft | 481 kts | 335° |
| 2026-05-04 21:51 | 18.77884 | -63.84033 | 34429 ft | 479 kts | 335° |
| 2026-05-04 21:51 | 18.80919 | -63.85469 | 34759 ft | 479 kts | 335° |
| 2026-05-04 21:52 | 18.83964 | -63.86901 | 35075 ft | 479 kts | 335° |
| 2026-05-04 21:52 | 18.87002 | -63.88323 | 35413 ft | 478 kts | 335° |
| 2026-05-04 21:52 | 18.89058 | -63.89283 | 35656 ft | 477 kts | 335° |
| 2026-05-04 21:52 | 18.92087 | -63.90693 | 36019 ft | 476 kts | 336° |
| 2026-05-04 21:53 | 18.95195 | -63.91955 | 36003 ft | 480 kts | 340° |
| 2026-05-04 21:53 | 19.01481 | -63.94141 | 36019 ft | 476 kts | 338° |
| 2026-05-04 21:54 | 19.07345 | -63.97312 | 36028 ft | 471 kts | 326° |
| 2026-05-04 21:54 | 19.12619 | -64.01404 | 36032 ft | 470 kts | 321° |
| 2026-05-04 21:55 | 19.17664 | -64.05806 | 36030 ft | 470 kts | 319° |
| 2026-05-04 21:55 | 19.22708 | -64.10236 | 36027 ft | 472 kts | 320° |
| 2026-05-04 21:56 | 19.27759 | -64.14611 | 36029 ft | 472 kts | 320° |
| 2026-05-04 21:56 | 19.32872 | -64.19003 | 36028 ft | 473 kts | 320° |
| 2026-05-04 21:57 | 19.37988 | -64.23392 | 36030 ft | 473 kts | 320° |
| 2026-05-04 21:57 | 19.43109 | -64.27790 | 36027 ft | 473 kts | 320° |
| 2026-05-04 21:58 | 19.48226 | -64.32190 | 36027 ft | 473 kts | 320° |
| 2026-05-04 21:58 | 19.53340 | -64.36592 | 36029 ft | 473 kts | 320° |
| 2026-05-04 21:59 | 19.58423 | -64.40972 | 36028 ft | 473 kts | 320° |
| 2026-05-04 21:59 | 19.63532 | -64.45379 | 36028 ft | 473 kts | 320° |
| 2026-05-04 22:00 | 19.68634 | -64.49783 | 36025 ft | 473 kts | 320° |
| 2026-05-04 22:00 | 19.73742 | -64.54195 | 36019 ft | 472 kts | 320° |
| 2026-05-04 22:01 | 19.78801 | -64.58568 | 36026 ft | 472 kts | 320° |
| 2026-05-04 22:01 | 19.83891 | -64.62972 | 36029 ft | 471 kts | 320° |
| 2026-05-04 22:02 | 19.88973 | -64.67373 | 36028 ft | 472 kts | 320° |
| 2026-05-04 22:02 | 19.94067 | -64.71789 | 36029 ft | 472 kts | 320° |
| 2026-05-04 22:03 | 19.99156 | -64.76204 | 36027 ft | 472 kts | 320° |
| 2026-05-04 22:03 | 20.04254 | -64.80630 | 36027 ft | 472 kts | 319° |
| 2026-05-04 22:04 | 20.09345 | -64.85056 | 36027 ft | 472 kts | 319° |
| 2026-05-04 22:04 | 20.14411 | -64.89462 | 36029 ft | 473 kts | 319° |
| 2026-05-04 22:05 | 20.19510 | -64.93901 | 36035 ft | 473 kts | 319° |
| 2026-05-04 22:05 | 20.24603 | -64.98338 | 36035 ft | 472 kts | 319° |
| 2026-05-04 22:06 | 20.29690 | -65.02774 | 36030 ft | 473 kts | 319° |
| 2026-05-04 22:06 | 20.34775 | -65.07209 | 36024 ft | 472 kts | 319° |
| 2026-05-04 22:07 | 20.39826 | -65.11622 | 36027 ft | 472 kts | 319° |
| 2026-05-04 22:07 | 20.44909 | -65.16070 | 36034 ft | 472 kts | 319° |
| 2026-05-04 22:08 | 20.49984 | -65.20511 | 36036 ft | 472 kts | 319° |
| 2026-05-04 22:08 | 20.55063 | -65.24958 | 36051 ft | 472 kts | 319° |
| 2026-05-04 22:09 | 20.60148 | -65.29415 | 36034 ft | 473 kts | 319° |
| 2026-05-04 22:09 | 20.65230 | -65.33874 | 36034 ft | 473 kts | 319° |
| 2026-05-04 22:10 | 20.70313 | -65.38338 | 36036 ft | 472 kts | 319° |
| 2026-05-04 22:10 | 20.75360 | -65.42775 | 36043 ft | 472 kts | 318° |
| 2026-05-04 22:11 | 20.80434 | -65.47239 | 36033 ft | 472 kts | 318° |
| 2026-05-04 22:11 | 20.85497 | -65.51699 | 36036 ft | 472 kts | 318° |
| 2026-05-04 22:12 | 20.90560 | -65.56161 | 36035 ft | 472 kts | 318° |
| 2026-05-04 22:12 | 20.95627 | -65.60630 | 36025 ft | 472 kts | 318° |
| 2026-05-04 22:13 | 21.00695 | -65.65105 | 36026 ft | 472 kts | 318° |
| 2026-05-04 22:13 | 21.05763 | -65.69586 | 36028 ft | 472 kts | 318° |
| 2026-05-04 22:14 | 21.10821 | -65.74060 | 36028 ft | 472 kts | 318° |
| 2026-05-04 22:14 | 21.15856 | -65.78520 | 36025 ft | 471 kts | 318° |
| 2026-05-04 22:15 | 21.20903 | -65.82990 | 36028 ft | 470 kts | 317° |
| 2026-05-04 22:15 | 21.25940 | -65.87458 | 36036 ft | 470 kts | 317° |
| 2026-05-04 22:16 | 21.30975 | -65.91932 | 36034 ft | 469 kts | 317° |
| 2026-05-04 22:16 | 21.36007 | -65.96405 | 36033 ft | 469 kts | 317° |
| 2026-05-04 22:17 | 21.41027 | -66.00870 | 36044 ft | 469 kts | 317° |
| 2026-05-04 22:17 | 21.46542 | -66.04662 | 36046 ft | 476 kts | 332° |
| 2026-05-04 22:18 | 21.52874 | -66.06862 | 36031 ft | 483 kts | 345° |
| 2026-05-04 22:18 | 21.59504 | -66.08148 | 36026 ft | 484 kts | 346° |
| 2026-05-04 22:19 | 21.66093 | -66.09414 | 36028 ft | 484 kts | 345° |
| 2026-05-04 22:19 | 21.72722 | -66.10746 | 36027 ft | 484 kts | 345° |
| 2026-05-04 22:20 | 21.79337 | -66.12102 | 36030 ft | 484 kts | 345° |
| 2026-05-04 22:20 | 21.85965 | -66.13462 | 36024 ft | 484 kts | 345° |
| 2026-05-04 22:21 | 21.92588 | -66.14821 | 36031 ft | 484 kts | 345° |
| 2026-05-04 22:21 | 21.99211 | -66.16178 | 36035 ft | 484 kts | 345° |
| 2026-05-04 22:22 | 22.05788 | -66.17528 | 36035 ft | 483 kts | 345° |
| 2026-05-04 22:22 | 22.12405 | -66.18877 | 36033 ft | 483 kts | 345° |
| 2026-05-04 22:23 | 22.19018 | -66.20224 | 36035 ft | 484 kts | 345° |
| 2026-05-04 22:23 | 22.25645 | -66.21576 | 36036 ft | 484 kts | 345° |
| 2026-05-04 22:24 | 22.32268 | -66.22928 | 36035 ft | 484 kts | 345° |
| 2026-05-04 22:24 | 22.38895 | -66.24283 | 36039 ft | 485 kts | 345° |
| 2026-05-04 22:25 | 22.45478 | -66.25630 | 36033 ft | 485 kts | 345° |
| 2026-05-04 22:25 | 22.52115 | -66.26993 | 36036 ft | 485 kts | 345° |
| 2026-05-04 22:26 | 22.58745 | -66.28353 | 36033 ft | 485 kts | 345° |
| 2026-05-04 22:26 | 22.65371 | -66.29714 | 36035 ft | 485 kts | 345° |
| 2026-05-04 22:27 | 22.72006 | -66.31076 | 36036 ft | 485 kts | 344° |
| 2026-05-04 22:27 | 22.78637 | -66.32440 | 36027 ft | 485 kts | 344° |
| 2026-05-04 22:28 | 22.85287 | -66.33812 | 36051 ft | 486 kts | 344° |
| 2026-05-04 22:28 | 22.91889 | -66.35174 | 36036 ft | 486 kts | 344° |
| 2026-05-04 22:29 | 22.98551 | -66.36550 | 36036 ft | 487 kts | 344° |
| 2026-05-04 22:29 | 23.05204 | -66.37925 | 36044 ft | 486 kts | 344° |
| 2026-05-04 22:30 | 23.11854 | -66.39304 | 36054 ft | 487 kts | 344° |
| 2026-05-04 22:30 | 23.18516 | -66.40687 | 36041 ft | 487 kts | 344° |
| 2026-05-04 22:31 | 23.25175 | -66.42070 | 36053 ft | 487 kts | 344° |
| 2026-05-04 22:31 | 23.31840 | -66.43455 | 36043 ft | 487 kts | 344° |
| 2026-05-04 22:32 | 23.38505 | -66.44842 | 36038 ft | 487 kts | 343° |
| 2026-05-04 22:32 | 23.45121 | -66.46221 | 36041 ft | 487 kts | 343° |
| 2026-05-04 22:33 | 23.51782 | -66.47609 | 36045 ft | 487 kts | 343° |
| 2026-05-04 22:33 | 23.58440 | -66.48998 | 36047 ft | 487 kts | 343° |
| 2026-05-04 22:34 | 23.65097 | -66.50389 | 36043 ft | 487 kts | 343° |
| 2026-05-04 22:34 | 23.71718 | -66.51775 | 36041 ft | 487 kts | 343° |
| 2026-05-04 22:35 | 23.78370 | -66.53166 | 36054 ft | 487 kts | 343° |
| 2026-05-04 22:35 | 23.85028 | -66.54562 | 36042 ft | 487 kts | 343° |
| 2026-05-04 22:36 | 23.91696 | -66.55961 | 36046 ft | 487 kts | 343° |
| 2026-05-04 22:36 | 23.98371 | -66.57363 | 36045 ft | 488 kts | 343° |
| 2026-05-04 22:37 | 24.05000 | -66.58755 | 36054 ft | 488 kts | 343° |
| 2026-05-04 22:37 | 24.11679 | -66.60164 | 36044 ft | 488 kts | 343° |
| 2026-05-04 22:38 | 24.18351 | -66.61570 | 36040 ft | 488 kts | 343° |
| 2026-05-04 22:38 | 24.25028 | -66.62979 | 36044 ft | 488 kts | 343° |
| 2026-05-04 22:39 | 24.30574 | -66.64149 | 36051 ft | 488 kts | 343° |
| 2026-05-04 22:39 | 24.38343 | -66.65792 | 36018 ft | 489 kts | 343° |
| 2026-05-04 22:40 | 24.45023 | -66.67205 | 36018 ft | 489 kts | 343° |
| 2026-05-04 22:40 | 24.50568 | -66.68379 | 36018 ft | 488 kts | 343° |
| 2026-05-04 22:41 | 24.57241 | -66.69792 | 36025 ft | 488 kts | 343° |
| 2026-05-04 22:41 | 24.63918 | -66.71210 | 36026 ft | 489 kts | 343° |
| 2026-05-04 22:42 | 24.70595 | -66.72629 | 36030 ft | 489 kts | 343° |
| 2026-05-04 22:42 | 24.77283 | -66.74052 | 36030 ft | 489 kts | 343° |
| 2026-05-04 22:43 | 24.83979 | -66.75479 | 36027 ft | 490 kts | 343° |
| 2026-05-04 22:43 | 24.90683 | -66.76908 | 36026 ft | 490 kts | 343° |
| 2026-05-04 22:44 | 24.97378 | -66.78337 | 36028 ft | 490 kts | 342° |
| 2026-05-04 22:44 | 25.04077 | -66.79766 | 36034 ft | 490 kts | 342° |
| 2026-05-04 22:45 | 25.10733 | -66.81190 | 36036 ft | 490 kts | 342° |
| 2026-05-04 22:45 | 25.20776 | -66.83342 | 36037 ft | 490 kts | 342° |
| 2026-05-04 22:46 | 25.27478 | -66.84779 | 36052 ft | 490 kts | 342° |
| 2026-05-04 22:46 | 25.34172 | -66.86219 | 36035 ft | 490 kts | 342° |
| 2026-05-04 22:47 | 25.40871 | -66.87657 | 36036 ft | 490 kts | 342° |
| 2026-05-04 22:47 | 25.47563 | -66.89099 | 36044 ft | 490 kts | 342° |
| 2026-05-04 22:48 | 25.54229 | -66.90534 | 36035 ft | 490 kts | 342° |
| 2026-05-04 22:48 | 25.60921 | -66.91977 | 36041 ft | 490 kts | 342° |
| 2026-05-04 22:49 | 25.67625 | -66.93424 | 36053 ft | 490 kts | 342° |
| 2026-05-04 22:49 | 25.74327 | -66.94873 | 36047 ft | 490 kts | 342° |
| 2026-05-04 22:50 | 25.81033 | -66.96324 | 36054 ft | 491 kts | 342° |
| 2026-05-04 22:50 | 25.87732 | -66.97777 | 36039 ft | 491 kts | 342° |
| 2026-05-04 22:51 | 25.94437 | -66.99232 | 36042 ft | 491 kts | 342° |
| 2026-05-04 22:51 | 26.01158 | -67.00693 | 36050 ft | 491 kts | 342° |
| 2026-05-04 22:52 | 26.07875 | -67.02153 | 36053 ft | 492 kts | 342° |
| 2026-05-04 22:52 | 26.14597 | -67.03617 | 36049 ft | 492 kts | 342° |
| 2026-05-04 22:53 | 26.21282 | -67.05074 | 36041 ft | 492 kts | 342° |
| 2026-05-04 22:53 | 26.28024 | -67.06545 | 36047 ft | 493 kts | 342° |
| 2026-05-04 22:54 | 26.34769 | -67.08019 | 36042 ft | 493 kts | 342° |
| 2026-05-04 22:54 | 26.41510 | -67.09493 | 36053 ft | 493 kts | 342° |
| 2026-05-04 22:55 | 26.48206 | -67.10959 | 36047 ft | 494 kts | 342° |
| 2026-05-04 22:55 | 26.54946 | -67.12436 | 36061 ft | 493 kts | 342° |
| 2026-05-04 22:56 | 26.61687 | -67.13916 | 36052 ft | 493 kts | 342° |
| 2026-05-04 22:56 | 26.68431 | -67.15399 | 36051 ft | 493 kts | 342° |
| 2026-05-04 22:57 | 26.75178 | -67.16883 | 36056 ft | 494 kts | 342° |
| 2026-05-04 22:57 | 26.81919 | -67.18368 | 36062 ft | 493 kts | 342° |
| 2026-05-04 22:58 | 26.88617 | -67.19846 | 36048 ft | 493 kts | 342° |
| 2026-05-04 22:58 | 26.95371 | -67.21338 | 36055 ft | 494 kts | 342° |
| 2026-05-04 22:59 | 27.02120 | -67.22833 | 36056 ft | 494 kts | 342° |
| 2026-05-04 22:59 | 27.08836 | -67.24318 | 36073 ft | 495 kts | 342° |
| 2026-05-04 23:00 | 27.15598 | -67.25819 | 36073 ft | 495 kts | 342° |
| 2026-05-04 23:00 | 27.22370 | -67.27324 | 36073 ft | 496 kts | 342° |
| 2026-05-04 23:01 | 27.29117 | -67.28827 | 36076 ft | 497 kts | 342° |
| 2026-05-04 23:01 | 27.35910 | -67.30341 | 36074 ft | 498 kts | 342° |
| 2026-05-04 23:02 | 27.42717 | -67.31860 | 36077 ft | 498 kts | 342° |
| 2026-05-04 23:02 | 27.49521 | -67.33380 | 36078 ft | 498 kts | 342° |
| 2026-05-04 23:03 | 27.56326 | -67.34904 | 36082 ft | 498 kts | 342° |
| 2026-05-04 23:03 | 27.63129 | -67.36427 | 36086 ft | 498 kts | 342° |
| 2026-05-04 23:04 | 27.69924 | -67.37953 | 36080 ft | 498 kts | 342° |
| 2026-05-04 23:04 | 27.76731 | -67.39480 | 36084 ft | 499 kts | 342° |
| 2026-05-04 23:05 | 27.83493 | -67.41001 | 36081 ft | 499 kts | 342° |
| 2026-05-04 23:05 | 27.90315 | -67.42536 | 36084 ft | 499 kts | 342° |
| 2026-05-04 23:06 | 27.97129 | -67.44073 | 36080 ft | 499 kts | 342° |
| 2026-05-04 23:06 | 28.03949 | -67.45612 | 36081 ft | 500 kts | 342° |
| 2026-05-04 23:07 | 28.10728 | -67.47146 | 36086 ft | 500 kts | 342° |
| 2026-05-04 23:07 | 28.17563 | -67.48694 | 36083 ft | 501 kts | 342° |
| 2026-05-04 23:08 | 28.24402 | -67.50244 | 36084 ft | 501 kts | 342° |
| 2026-05-04 23:08 | 28.31244 | -67.51796 | 36093 ft | 501 kts | 342° |
| 2026-05-04 23:09 | 28.38159 | -67.53059 | 36086 ft | 509 kts | 350° |
| 2026-05-04 23:09 | 28.45271 | -67.53314 | 36097 ft | 512 kts | 352° |
| 2026-05-04 23:10 | 28.52358 | -67.53460 | 36093 ft | 512 kts | 352° |
| 2026-05-04 23:10 | 28.59475 | -67.53645 | 36094 ft | 511 kts | 352° |
| 2026-05-04 23:11 | 28.66584 | -67.53866 | 36092 ft | 511 kts | 352° |
| 2026-05-04 23:11 | 28.73682 | -67.54099 | 36098 ft | 510 kts | 352° |
| 2026-05-04 23:12 | 28.80784 | -67.54330 | 36102 ft | 510 kts | 352° |
| 2026-05-04 23:12 | 28.87892 | -67.54560 | 36102 ft | 510 kts | 352° |
| 2026-05-04 23:13 | 28.94990 | -67.54789 | 36102 ft | 510 kts | 352° |
| 2026-05-04 23:13 | 29.02100 | -67.55020 | 36102 ft | 511 kts | 351° |
| 2026-05-04 23:14 | 29.09163 | -67.55248 | 36102 ft | 511 kts | 352° |
| 2026-05-04 23:14 | 29.16283 | -67.55476 | 36102 ft | 511 kts | 351° |
| 2026-05-04 23:15 | 29.23408 | -67.55707 | 36095 ft | 512 kts | 351° |
| 2026-05-04 23:15 | 29.30533 | -67.55942 | 36107 ft | 512 kts | 351° |
| 2026-05-04 23:16 | 29.37673 | -67.56173 | 36109 ft | 513 kts | 351° |
| 2026-05-04 23:16 | 29.44827 | -67.56405 | 36106 ft | 514 kts | 351° |
| 2026-05-04 23:17 | 29.51975 | -67.56637 | 36114 ft | 514 kts | 351° |
| 2026-05-04 23:17 | 29.59132 | -67.56871 | 36114 ft | 514 kts | 351° |
| 2026-05-04 23:18 | 29.66295 | -67.57106 | 36111 ft | 515 kts | 351° |
| 2026-05-04 23:18 | 29.73412 | -67.57338 | 36108 ft | 515 kts | 351° |
| 2026-05-04 23:19 | 29.80577 | -67.57574 | 36111 ft | 515 kts | 351° |
| 2026-05-04 23:19 | 29.87758 | -67.57809 | 36110 ft | 516 kts | 351° |
| 2026-05-04 23:20 | 29.94934 | -67.58045 | 36110 ft | 516 kts | 351° |
| 2026-05-04 23:20 | 30.02131 | -67.58280 | 36110 ft | 516 kts | 351° |
| 2026-05-04 23:21 | 30.09278 | -67.58517 | 36109 ft | 517 kts | 351° |
| 2026-05-04 23:21 | 30.16481 | -67.58757 | 36112 ft | 518 kts | 351° |
| 2026-05-04 23:22 | 30.23704 | -67.58995 | 36111 ft | 518 kts | 351° |
| 2026-05-04 23:22 | 30.30916 | -67.59236 | 36111 ft | 519 kts | 351° |
| 2026-05-04 23:23 | 30.38145 | -67.59472 | 36107 ft | 518 kts | 351° |
| 2026-05-04 23:23 | 30.45350 | -67.59711 | 36107 ft | 518 kts | 351° |
| 2026-05-04 23:24 | 30.52508 | -67.59948 | 36109 ft | 518 kts | 351° |
| 2026-05-04 23:24 | 30.59719 | -67.60189 | 36112 ft | 518 kts | 351° |
| 2026-05-04 23:25 | 30.66928 | -67.60432 | 36116 ft | 518 kts | 351° |
| 2026-05-04 23:25 | 30.72936 | -67.60570 | 36121 ft | 521 kts | 352° |
| 2026-05-04 23:26 | 30.80207 | -67.60502 | 36120 ft | 523 kts | 353° |
| 2026-05-04 23:26 | 30.87504 | -67.60387 | 36126 ft | 524 kts | 353° |
| 2026-05-04 23:27 | 30.94760 | -67.60302 | 36120 ft | 525 kts | 353° |
| 2026-05-04 23:27 | 31.02074 | -67.60244 | 36120 ft | 526 kts | 353° |
| 2026-05-04 23:28 | 31.09405 | -67.60193 | 36120 ft | 527 kts | 353° |
| 2026-05-04 23:28 | 31.16746 | -67.60139 | 36122 ft | 528 kts | 353° |
| 2026-05-04 23:29 | 31.24108 | -67.60083 | 36117 ft | 529 kts | 353° |
| 2026-05-04 23:29 | 31.31473 | -67.60027 | 36122 ft | 530 kts | 353° |
| 2026-05-04 23:30 | 31.38859 | -67.59971 | 36121 ft | 531 kts | 353° |
| 2026-05-04 23:30 | 31.46212 | -67.59914 | 36122 ft | 532 kts | 352° |
| 2026-05-04 23:31 | 31.53628 | -67.59858 | 36114 ft | 533 kts | 352° |
| 2026-05-04 23:31 | 31.61047 | -67.59801 | 36118 ft | 533 kts | 352° |
| 2026-05-04 23:32 | 31.68489 | -67.59744 | 36118 ft | 534 kts | 352° |
| 2026-05-04 23:32 | 31.75890 | -67.59686 | 36122 ft | 534 kts | 352° |
| 2026-05-04 23:33 | 31.83325 | -67.59629 | 36120 ft | 535 kts | 352° |
| 2026-05-04 23:33 | 31.90776 | -67.59570 | 36120 ft | 535 kts | 352° |
| 2026-05-04 23:34 | 31.98226 | -67.59512 | 36123 ft | 536 kts | 352° |
| 2026-05-04 23:34 | 32.05682 | -67.59454 | 36118 ft | 536 kts | 352° |
| 2026-05-04 23:35 | 32.13152 | -67.59397 | 36116 ft | 536 kts | 352° |
| 2026-05-04 23:35 | 32.20584 | -67.59339 | 36117 ft | 537 kts | 352° |
| 2026-05-04 23:36 | 32.28063 | -67.59279 | 36120 ft | 536 kts | 352° |
| 2026-05-04 23:36 | 32.35541 | -67.59223 | 36124 ft | 537 kts | 352° |
| 2026-05-04 23:37 | 32.43017 | -67.59164 | 36125 ft | 537 kts | 352° |
| 2026-05-04 23:37 | 32.50504 | -67.59106 | 36109 ft | 538 kts | 352° |
| 2026-05-04 23:38 | 32.58004 | -67.59049 | 36113 ft | 539 kts | 352° |
| 2026-05-04 23:38 | 32.65516 | -67.58989 | 36112 ft | 540 kts | 352° |
| 2026-05-04 23:39 | 32.73028 | -67.58928 | 36108 ft | 540 kts | 352° |
| 2026-05-04 23:39 | 32.80541 | -67.58869 | 36108 ft | 540 kts | 352° |
| 2026-05-04 23:40 | 32.88021 | -67.58810 | 36112 ft | 540 kts | 352° |
| 2026-05-04 23:40 | 32.95533 | -67.58750 | 36108 ft | 540 kts | 352° |
| 2026-05-04 23:41 | 33.03059 | -67.58691 | 36108 ft | 541 kts | 352° |
| 2026-05-04 23:41 | 33.10594 | -67.58632 | 36109 ft | 542 kts | 352° |
| 2026-05-04 23:42 | 33.18141 | -67.58571 | 36113 ft | 543 kts | 352° |
| 2026-05-04 23:42 | 33.25706 | -67.58511 | 36109 ft | 544 kts | 351° |
| 2026-05-04 23:43 | 33.33279 | -67.58450 | 36113 ft | 544 kts | 351° |
| 2026-05-04 23:43 | 33.40872 | -67.58390 | 36109 ft | 545 kts | 351° |
| 2026-05-04 23:44 | 33.48417 | -67.58332 | 36105 ft | 546 kts | 351° |
| 2026-05-04 23:44 | 33.56024 | -67.58270 | 36094 ft | 547 kts | 351° |
| 2026-05-04 23:45 | 33.63652 | -67.58210 | 36092 ft | 548 kts | 351° |
| 2026-05-04 23:45 | 33.71275 | -67.58145 | 36090 ft | 548 kts | 351° |
| 2026-05-04 23:46 | 33.78907 | -67.58082 | 36091 ft | 548 kts | 351° |
| 2026-05-04 23:46 | 33.86535 | -67.58022 | 36095 ft | 548 kts | 351° |
| 2026-05-04 23:47 | 33.94122 | -67.57961 | 36093 ft | 548 kts | 351° |
| 2026-05-04 23:47 | 34.01757 | -67.57899 | 36091 ft | 548 kts | 351° |
| 2026-05-04 23:48 | 34.09383 | -67.57837 | 36090 ft | 548 kts | 351° |
| 2026-05-04 23:48 | 34.17024 | -67.57782 | 36095 ft | 549 kts | 351° |
| 2026-05-04 23:49 | 34.24665 | -67.57772 | 36093 ft | 549 kts | 350° |
| 2026-05-04 23:49 | 34.32315 | -67.57776 | 36084 ft | 550 kts | 351° |
| 2026-05-04 23:50 | 34.39977 | -67.57775 | 36082 ft | 550 kts | 351° |
| 2026-05-04 23:50 | 34.47485 | -67.57767 | 36086 ft | 551 kts | 351° |
| 2026-05-04 23:51 | 34.55111 | -67.57759 | 36082 ft | 551 kts | 350° |
| 2026-05-04 23:51 | 34.62799 | -67.57752 | 36081 ft | 551 kts | 350° |
| 2026-05-04 23:52 | 34.70471 | -67.57744 | 36078 ft | 552 kts | 350° |
| 2026-05-04 23:52 | 34.78165 | -67.57737 | 36075 ft | 553 kts | 350° |
| 2026-05-04 23:53 | 34.85816 | -67.57731 | 36075 ft | 554 kts | 350° |
| 2026-05-04 23:53 | 34.93558 | -67.57726 | 36072 ft | 556 kts | 350° |
| 2026-05-04 23:54 | 35.01305 | -67.57717 | 36075 ft | 557 kts | 350° |
| 2026-05-04 23:54 | 35.09069 | -67.57705 | 36059 ft | 558 kts | 350° |
| 2026-05-04 23:55 | 35.16845 | -67.57693 | 36068 ft | 558 kts | 350° |
| 2026-05-04 23:56 | 35.28510 | -67.57684 | 36060 ft | 559 kts | 350° |
| 2026-05-04 23:56 | 35.36251 | -67.57681 | 36061 ft | 560 kts | 350° |
| 2026-05-04 23:57 | 35.44080 | -67.57672 | 36063 ft | 562 kts | 349° |
| 2026-05-04 23:57 | 35.51915 | -67.57672 | 36035 ft | 563 kts | 349° |
| 2026-05-04 23:58 | 35.59744 | -67.57660 | 36044 ft | 562 kts | 349° |
| 2026-05-04 23:58 | 35.67589 | -67.57642 | 36048 ft | 564 kts | 349° |
| 2026-05-04 23:59 | 35.75439 | -67.57638 | 36044 ft | 565 kts | 349° |
| 2026-05-04 23:59 | 35.83268 | -67.57630 | 36044 ft | 567 kts | 349° |
| 2026-05-05 00:00 | 35.91164 | -67.57624 | 36056 ft | 568 kts | 349° |
| 2026-05-05 00:00 | 35.99074 | -67.57612 | 36048 ft | 568 kts | 349° |
| 2026-05-05 00:01 | 36.06975 | -67.57609 | 36058 ft | 567 kts | 349° |
| 2026-05-05 00:01 | 36.14837 | -67.57587 | 36053 ft | 556 kts | 349° |
| 2026-05-05 00:01 | 36.18662 | -67.57570 | 36054 ft | 544 kts | 349° |
| 2026-05-05 00:02 | 36.22417 | -67.57557 | 36031 ft | 538 kts | 349° |
| 2026-05-05 00:02 | 36.29872 | -67.57561 | 36037 ft | 541 kts | 349° |
| 2026-05-05 00:03 | 36.37424 | -67.57573 | 36034 ft | 544 kts | 349° |
| 2026-05-05 00:03 | 36.45010 | -67.57570 | 36032 ft | 546 kts | 349° |
| 2026-05-05 00:04 | 36.52631 | -67.57560 | 36034 ft | 548 kts | 349° |
| 2026-05-05 00:04 | 36.60260 | -67.57546 | 36022 ft | 546 kts | 349° |
| 2026-05-05 00:05 | 36.67841 | -67.57538 | 36023 ft | 543 kts | 350° |
| 2026-05-05 00:05 | 36.75392 | -67.57535 | 36015 ft | 542 kts | 349° |
| 2026-05-05 00:06 | 36.82911 | -67.57525 | 36018 ft | 540 kts | 349° |
| 2026-05-05 00:06 | 36.90432 | -67.57514 | 36020 ft | 539 kts | 350° |
| 2026-05-05 00:07 | 36.97922 | -67.57504 | 36016 ft | 538 kts | 350° |
| 2026-05-05 00:07 | 37.05409 | -67.57498 | 36018 ft | 537 kts | 350° |
| 2026-05-05 00:08 | 37.12883 | -67.57493 | 36007 ft | 536 kts | 350° |
| 2026-05-05 00:08 | 37.20340 | -67.57480 | 36014 ft | 536 kts | 350° |
| 2026-05-05 00:09 | 37.27737 | -67.57471 | 36011 ft | 534 kts | 350° |
| 2026-05-05 00:09 | 37.35165 | -67.57465 | 36006 ft | 532 kts | 350° |
| 2026-05-05 00:10 | 37.42565 | -67.57455 | 36007 ft | 531 kts | 351° |
| 2026-05-05 00:10 | 37.49940 | -67.57447 | 35998 ft | 530 kts | 351° |
| 2026-05-05 00:11 | 37.57323 | -67.57440 | 35999 ft | 529 kts | 351° |
| 2026-05-05 00:11 | 37.64673 | -67.57432 | 36000 ft | 527 kts | 351° |
| 2026-05-05 00:12 | 37.71992 | -67.57426 | 35995 ft | 525 kts | 351° |
| 2026-05-05 00:12 | 37.79251 | -67.57417 | 36001 ft | 524 kts | 351° |
| 2026-05-05 00:13 | 37.86542 | -67.57410 | 35985 ft | 523 kts | 351° |
| 2026-05-05 00:13 | 37.93822 | -67.57403 | 35991 ft | 523 kts | 351° |
| 2026-05-05 00:14 | 37.99877 | -67.57398 | 35980 ft | 523 kts | 351° |
| 2026-05-05 00:14 | 38.07153 | -67.57388 | 35983 ft | 521 kts | 351° |
| 2026-05-05 00:15 | 38.14403 | -67.57379 | 35978 ft | 521 kts | 351° |
| 2026-05-05 00:15 | 38.21645 | -67.57371 | 35982 ft | 520 kts | 351° |
| 2026-05-05 00:16 | 38.28885 | -67.57366 | 35981 ft | 519 kts | 351° |
| 2026-05-05 00:16 | 38.36122 | -67.57358 | 35982 ft | 519 kts | 351° |
| 2026-05-05 00:17 | 38.43326 | -67.57350 | 35982 ft | 520 kts | 351° |
| 2026-05-05 00:17 | 38.50559 | -67.57343 | 35984 ft | 520 kts | 351° |
| 2026-05-05 00:18 | 38.57814 | -67.57335 | 35981 ft | 521 kts | 351° |
| 2026-05-05 00:18 | 38.65020 | -67.57325 | 35981 ft | 521 kts | 351° |
| 2026-05-05 00:19 | 38.72273 | -67.57317 | 35982 ft | 521 kts | 351° |